createdAt,value
2023-05-04T00:00:37.929Z,50.866711
2023-05-04T00:01:37.932Z,50.866760
2023-05-04T00:02:38.002Z,50.866749
2023-05-04T00:03:38.098Z,50.866665
2023-05-04T00:04:37.921Z,50.866726
2023-05-04T00:05:37.926Z,50.866722
2023-05-04T00:06:37.890Z,50.866711
2023-05-04T00:07:37.879Z,50.866768
2023-05-04T00:08:37.867Z,50.866764
2023-05-04T00:09:37.860Z,50.866787
2023-05-04T00:10:38.785Z,50.866756
2023-05-04T00:11:37.845Z,50.866745
2023-05-04T00:12:37.962Z,50.866753
2023-05-04T00:13:37.838Z,50.866718
2023-05-04T00:14:37.827Z,50.866734
2023-05-04T00:15:37.819Z,50.866749
2023-05-04T00:16:37.849Z,50.866783
2023-05-04T00:17:37.818Z,50.866791
2023-05-04T00:18:37.797Z,50.866783
2023-05-04T00:19:37.801Z,50.866772
2023-05-04T00:20:37.777Z,50.866768
2023-05-04T00:24:20.343Z,50.866768
2023-05-04T00:25:20.360Z,50.866787
2023-05-04T00:26:20.328Z,50.866711
2023-05-04T00:27:20.314Z,50.866768
2023-05-04T00:28:20.305Z,50.866844
2023-05-04T00:29:20.294Z,50.866833
2023-05-04T00:30:20.298Z,50.867012
2023-05-04T00:31:20.294Z,50.867237
2023-05-04T00:32:20.279Z,50.866795
2023-05-04T00:33:20.262Z,50.866909
2023-05-04T00:34:20.257Z,50.866859
2023-05-04T00:35:20.285Z,50.866917
2023-05-04T00:36:20.274Z,50.867069
2023-05-04T00:37:20.232Z,50.867001
2023-05-04T00:38:20.231Z,50.866837
2023-05-04T00:39:20.220Z,50.866749
2023-05-04T00:40:20.206Z,50.866718
2023-05-04T00:41:20.208Z,50.866917
2023-05-04T00:42:20.189Z,50.866985
2023-05-04T00:43:20.188Z,50.866913
2023-05-04T00:44:20.183Z,50.866829
2023-05-04T00:45:20.185Z,50.866756
2023-05-04T00:46:20.174Z,50.866783
2023-05-04T00:47:20.192Z,50.866764
2023-05-04T00:48:20.142Z,50.866783
2023-05-04T00:49:20.155Z,50.866776
2023-05-04T00:50:20.136Z,50.866756
2023-05-04T00:51:20.122Z,50.866768
2023-05-04T00:52:20.711Z,50.866734
2023-05-04T00:53:20.129Z,50.866737
2023-05-04T00:54:20.109Z,50.866745
2023-05-04T00:55:20.091Z,50.866787
2023-05-04T00:56:20.081Z,50.866825
2023-05-04T00:57:20.085Z,50.866776
2023-05-04T00:58:20.081Z,50.866741
2023-05-04T00:59:20.059Z,50.866753
2023-05-04T01:00:20.052Z,50.866718
2023-05-04T01:01:20.081Z,50.866814
2023-05-04T01:02:20.095Z,50.866718
2023-05-04T01:03:20.055Z,50.866772
2023-05-04T01:04:20.021Z,50.866718
2023-05-04T01:05:20.001Z,50.866730
2023-05-04T01:06:21.711Z,50.866745
2023-05-04T01:07:20.003Z,50.866756
2023-05-04T01:08:20.002Z,50.866566
2023-05-04T01:09:19.983Z,50.866547
2023-05-04T01:10:19.996Z,50.866737
2023-05-04T01:11:19.968Z,50.866776
2023-05-04T01:12:19.973Z,50.866955
2023-05-04T01:13:19.949Z,50.867100
2023-05-04T01:14:19.950Z,50.867226
2023-05-04T01:15:19.931Z,50.867508
2023-05-04T01:16:19.935Z,50.866974
2023-05-04T01:17:19.921Z,50.866879
2023-05-04T01:18:19.923Z,50.866730
2023-05-04T01:19:19.905Z,50.866737
2023-05-04T01:20:19.910Z,50.866703
2023-05-04T01:21:19.885Z,50.866749
2023-05-04T01:22:19.883Z,50.866707
2023-05-04T01:23:19.863Z,50.866871
2023-05-04T01:24:19.862Z,50.866749
2023-05-04T01:25:19.843Z,50.866787
2023-05-04T01:26:19.845Z,50.866657
2023-05-04T01:27:20.712Z,50.866817
2023-05-04T01:28:19.848Z,50.866726
2023-05-04T01:29:19.820Z,50.866730
2023-05-04T01:30:19.806Z,50.866703
2023-05-04T01:31:19.825Z,50.866730
2023-05-04T01:32:19.800Z,50.866734
2023-05-04T01:33:19.798Z,50.866787
2023-05-04T01:34:20.708Z,50.866711
2023-05-04T01:35:19.821Z,50.866699
2023-05-04T01:36:19.831Z,50.866676
2023-05-04T01:37:19.767Z,50.866673
2023-05-04T01:38:20.711Z,50.866699
2023-05-04T01:39:19.721Z,50.866703
2023-05-04T01:40:20.734Z,50.866718
2023-05-04T01:41:19.730Z,50.866810
2023-05-04T01:42:19.782Z,50.866756
2023-05-04T01:43:19.725Z,50.866631
2023-05-04T01:44:19.691Z,50.866673
2023-05-04T01:45:20.634Z,50.866573
2023-05-04T01:46:19.707Z,50.866821
2023-05-04T01:47:19.663Z,50.866779
2023-05-04T01:48:19.683Z,50.866810
2023-05-04T01:49:19.655Z,50.866711
2023-05-04T01:50:19.633Z,50.866417
2023-05-04T01:51:19.627Z,50.866570
2023-05-04T01:52:19.629Z,50.866657
2023-05-04T01:53:19.637Z,50.866722
2023-05-04T01:54:19.622Z,50.866722
2023-05-04T01:55:19.621Z,50.866669
2023-05-04T01:56:19.601Z,50.866695
2023-05-04T01:57:19.585Z,50.866802
2023-05-04T01:58:19.580Z,50.866714
2023-05-04T01:59:19.565Z,50.866711
2023-05-04T02:00:19.562Z,50.866703
2023-05-04T02:01:19.572Z,50.866699
2023-05-04T02:02:19.535Z,50.866688
2023-05-04T02:03:19.606Z,50.866680
2023-05-04T02:04:19.529Z,50.866592
2023-05-04T02:05:19.569Z,50.866581
2023-05-04T02:06:19.508Z,50.866661
2023-05-04T02:07:19.494Z,50.866692
2023-05-04T02:08:19.552Z,50.866692
2023-05-04T02:09:19.504Z,50.866695
2023-05-04T02:10:19.488Z,50.866600
2023-05-04T02:11:19.476Z,50.866657
2023-05-04T02:12:19.484Z,50.866661
2023-05-04T02:13:19.526Z,50.866737
2023-05-04T02:14:19.461Z,50.866722
2023-05-04T02:15:19.453Z,50.866695
2023-05-04T02:16:19.500Z,50.866673
2023-05-04T02:17:19.434Z,50.866688
2023-05-04T02:18:19.438Z,50.866535
2023-05-04T02:19:19.412Z,50.866558
2023-05-04T02:20:19.423Z,50.866562
2023-05-04T02:21:19.392Z,50.866577
2023-05-04T02:22:19.400Z,50.866596
2023-05-04T02:23:19.385Z,50.866642
2023-05-04T02:24:19.375Z,50.866741
2023-05-04T02:25:19.374Z,50.866726
2023-05-04T02:26:19.365Z,50.866577
2023-05-04T02:27:19.365Z,50.866497
2023-05-04T02:28:19.372Z,50.866413
2023-05-04T02:29:19.342Z,50.866497
2023-05-04T02:30:19.344Z,50.866440
2023-05-04T02:31:19.347Z,50.866749
2023-05-04T02:32:19.316Z,50.866711
2023-05-04T02:33:19.299Z,50.866734
2023-05-04T02:34:19.317Z,50.866695
2023-05-04T02:35:19.290Z,50.866699
2023-05-04T02:36:19.275Z,50.866753
2023-05-04T02:37:19.289Z,50.866791
2023-05-04T02:38:19.271Z,50.866737
2023-05-04T02:39:19.262Z,50.866791
2023-05-04T02:40:19.261Z,50.866837
2023-05-04T02:41:19.238Z,50.866863
2023-05-04T02:42:19.348Z,50.866806
2023-05-04T02:43:19.216Z,50.866734
2023-05-04T02:44:19.213Z,50.866772
2023-05-04T02:45:19.214Z,50.866844
2023-05-04T02:46:19.229Z,50.866814
2023-05-04T02:47:19.186Z,50.866718
2023-05-04T02:48:19.194Z,50.866749
2023-05-04T02:49:19.170Z,50.866722
2023-05-04T02:50:19.175Z,50.866726
2023-05-04T02:51:19.246Z,50.866814
2023-05-04T02:52:19.164Z,50.866802
2023-05-04T02:53:19.153Z,50.866768
2023-05-04T02:54:19.145Z,50.866764
2023-05-04T02:55:19.125Z,50.866753
2023-05-04T02:56:19.154Z,50.866810
2023-05-04T02:57:19.116Z,50.866779
2023-05-04T02:58:19.131Z,50.866791
2023-05-04T02:59:19.102Z,50.866699
2023-05-04T03:00:19.116Z,50.866642
2023-05-04T03:01:19.131Z,50.866753
2023-05-04T03:02:19.079Z,50.866783
2023-05-04T03:03:19.075Z,50.866776
2023-05-04T03:04:19.071Z,50.866791
2023-05-04T03:05:19.058Z,50.866760
2023-05-04T03:06:19.042Z,50.866760
2023-05-04T03:07:19.047Z,50.866879
2023-05-04T03:08:19.033Z,50.866779
2023-05-04T03:09:19.021Z,50.866798
2023-05-04T03:10:19.026Z,50.866837
2023-05-04T03:11:19.030Z,50.866817
2023-05-04T03:12:19.005Z,50.866753
2023-05-04T03:13:19.098Z,50.866768
2023-05-04T03:14:18.996Z,50.866753
2023-05-04T03:15:18.986Z,50.866795
2023-05-04T03:16:18.974Z,50.866741
2023-05-04T03:17:19.652Z,50.866756
2023-05-04T03:18:18.960Z,50.866768
2023-05-04T03:19:19.020Z,50.866749
2023-05-04T03:20:18.939Z,50.866760
2023-05-04T03:21:18.940Z,50.866764
2023-05-04T03:22:18.955Z,50.866764
2023-05-04T03:23:18.917Z,50.866764
2023-05-04T03:24:18.909Z,50.866768
2023-05-04T03:25:18.901Z,50.866745
2023-05-04T03:26:18.893Z,50.866764
2023-05-04T03:27:18.877Z,50.866726
2023-05-04T03:28:18.882Z,50.866768
2023-05-04T03:29:18.862Z,50.866753
2023-05-04T03:30:18.865Z,50.866772
2023-05-04T03:31:18.887Z,50.866756
2023-05-04T03:32:18.834Z,50.866760
2023-05-04T03:33:18.842Z,50.866749
2023-05-04T03:34:18.845Z,50.866737
2023-05-04T03:35:24.353Z,50.866734
2023-05-04T03:36:20.805Z,50.866760
2023-05-04T03:37:18.810Z,50.866776
2023-05-04T03:38:18.800Z,50.866764
2023-05-04T03:39:18.776Z,50.866734
2023-05-04T03:40:18.791Z,50.866726
2023-05-04T03:41:18.775Z,50.866749
2023-05-04T03:42:18.755Z,50.866745
2023-05-04T03:43:18.744Z,50.866730
2023-05-04T03:44:18.735Z,50.866745
2023-05-04T03:45:18.799Z,50.866730
2023-05-04T03:46:18.856Z,50.866730
2023-05-04T03:47:18.726Z,50.866753
2023-05-04T03:48:18.715Z,50.866707
2023-05-04T03:49:18.710Z,50.866737
2023-05-04T03:50:21.258Z,50.866699
2023-05-04T03:51:18.713Z,50.866741
2023-05-04T03:52:18.684Z,50.866756
2023-05-04T03:53:19.210Z,50.866741
2023-05-04T03:54:18.670Z,50.866756
2023-05-04T03:55:18.745Z,50.866779
2023-05-04T03:56:18.659Z,50.866726
2023-05-04T03:57:18.636Z,50.866734
2023-05-04T03:58:18.622Z,50.866753
2023-05-04T03:59:18.658Z,50.866776
2023-05-04T04:00:18.641Z,50.866745
2023-05-04T04:01:18.618Z,50.866764
2023-05-04T04:02:18.846Z,50.866783
2023-05-04T04:03:18.704Z,50.866817
2023-05-04T04:04:18.640Z,50.866787
2023-05-04T04:05:18.577Z,50.866795
2023-05-04T04:06:18.610Z,50.866795
2023-05-04T04:07:18.558Z,50.866783
2023-05-04T04:08:18.582Z,50.866768
2023-05-04T04:09:18.581Z,50.866768
2023-05-04T04:10:18.525Z,50.866745
2023-05-04T04:11:19.527Z,50.866745
2023-05-04T04:12:18.538Z,50.866745
2023-05-04T04:13:18.540Z,50.866772
2023-05-04T04:14:19.159Z,50.866802
2023-05-04T04:15:19.154Z,50.866772
2023-05-04T04:16:18.806Z,50.866776
2023-05-04T04:17:19.500Z,50.866795
2023-05-04T04:18:18.517Z,50.866776
2023-05-04T04:19:18.493Z,50.866802
2023-05-04T04:20:18.471Z,50.866829
2023-05-04T04:21:18.475Z,50.866821
2023-05-04T04:22:18.638Z,50.866863
2023-05-04T04:23:18.459Z,50.866844
2023-05-04T04:24:18.439Z,50.866814
2023-05-04T04:25:18.427Z,50.866837
2023-05-04T04:26:18.417Z,50.866856
2023-05-04T04:27:18.403Z,50.866840
2023-05-04T04:28:18.405Z,50.866863
2023-05-04T04:29:18.387Z,50.866749
2023-05-04T04:30:18.434Z,50.866745
2023-05-04T04:31:20.304Z,50.866798
2023-05-04T04:32:18.370Z,50.866776
2023-05-04T04:33:18.365Z,50.866776
2023-05-04T04:34:18.354Z,50.866806
2023-05-04T04:35:18.340Z,50.866772
2023-05-04T04:36:18.338Z,50.866760
2023-05-04T04:37:18.311Z,50.866798
2023-05-04T04:38:18.321Z,50.866806
2023-05-04T04:39:18.361Z,50.866768
2023-05-04T04:40:19.309Z,50.866791
2023-05-04T04:41:18.314Z,50.866806
2023-05-04T04:42:18.280Z,50.866802
2023-05-04T04:43:18.282Z,50.866825
2023-05-04T04:44:18.262Z,50.866806
2023-05-04T04:45:19.314Z,50.866817
2023-05-04T04:46:19.321Z,50.866844
2023-05-04T04:47:18.253Z,50.866859
2023-05-04T04:48:18.238Z,50.866783
2023-05-04T04:49:18.240Z,50.866749
2023-05-04T04:50:18.254Z,50.866749
2023-05-04T04:51:18.794Z,50.866730
2023-05-04T04:52:18.225Z,50.866703
2023-05-04T04:53:18.206Z,50.866718
2023-05-04T04:54:18.205Z,50.866764
2023-05-04T04:55:18.203Z,50.866760
2023-05-04T04:56:18.172Z,50.866810
2023-05-04T04:57:18.172Z,50.866829
2023-05-04T04:58:19.733Z,50.866749
2023-05-04T04:59:18.157Z,50.866756
2023-05-04T05:00:18.152Z,50.866817
2023-05-04T05:01:18.271Z,50.866894
2023-05-04T05:02:18.180Z,50.866726
2023-05-04T05:03:18.169Z,50.866615
2023-05-04T05:04:18.146Z,50.866528
2023-05-04T05:05:18.111Z,50.866940
2023-05-04T05:06:18.170Z,50.866829
2023-05-04T05:07:18.084Z,50.866657
2023-05-04T05:08:18.084Z,50.866497
2023-05-04T05:09:18.080Z,50.866680
2023-05-04T05:10:18.061Z,50.866734
2023-05-04T05:11:18.072Z,50.866642
2023-05-04T05:12:18.052Z,50.866550
2023-05-04T05:13:18.104Z,50.866482
2023-05-04T05:14:18.055Z,50.866516
2023-05-04T05:15:18.019Z,50.866566
2023-05-04T05:16:18.015Z,50.866508
2023-05-04T05:17:18.014Z,50.866428
2023-05-04T05:18:17.994Z,50.866425
2023-05-04T05:19:18.011Z,50.866802
2023-05-04T05:20:17.977Z,50.866795
2023-05-04T05:21:19.756Z,50.866825
2023-05-04T05:22:18.750Z,50.866814
2023-05-04T05:23:17.963Z,50.866779
2023-05-04T05:24:17.946Z,50.866764
2023-05-04T05:25:18.688Z,50.866768
2023-05-04T05:26:18.687Z,50.866722
2023-05-04T05:27:19.678Z,50.866684
2023-05-04T05:28:19.670Z,50.866768
2023-05-04T05:29:22.780Z,50.866787
2023-05-04T05:30:18.673Z,50.866692
2023-05-04T05:31:17.951Z,50.866680
2023-05-04T05:32:17.889Z,50.866631
2023-05-04T05:33:18.842Z,50.866718
2023-05-04T05:34:17.867Z,50.866730
2023-05-04T05:35:17.865Z,50.866673
2023-05-04T05:36:17.865Z,50.866726
2023-05-04T05:37:17.842Z,50.866726
2023-05-04T05:38:17.889Z,50.866852
2023-05-04T05:39:17.828Z,50.866795
2023-05-04T05:40:17.814Z,50.866779
2023-05-04T05:41:17.802Z,50.866856
2023-05-04T05:42:17.801Z,50.866776
2023-05-04T05:43:17.788Z,50.866829
2023-05-04T05:44:17.786Z,50.866817
2023-05-04T05:45:17.770Z,50.866817
2023-05-04T05:46:18.809Z,50.866863
2023-05-04T05:47:17.761Z,50.866814
2023-05-04T05:48:17.750Z,50.866783
2023-05-04T05:49:17.849Z,50.866810
2023-05-04T05:50:17.735Z,50.866817
2023-05-04T05:51:17.745Z,50.866795
2023-05-04T05:52:17.745Z,50.866844
2023-05-04T05:53:17.721Z,50.866814
2023-05-04T05:54:17.717Z,50.866798
2023-05-04T05:55:17.698Z,50.866817
2023-05-04T05:56:17.693Z,50.866844
2023-05-04T05:57:17.675Z,50.866840
2023-05-04T05:58:17.677Z,50.866875
2023-05-04T05:59:17.656Z,50.866871
2023-05-04T06:00:18.665Z,50.866825
2023-05-04T06:01:19.177Z,50.866802
2023-05-04T06:02:17.686Z,50.866776
2023-05-04T06:03:17.715Z,50.866791
2023-05-04T06:04:17.771Z,50.866821
2023-05-04T06:05:17.627Z,50.866802
2023-05-04T06:06:17.606Z,50.866863
2023-05-04T06:07:17.605Z,50.866875
2023-05-04T06:08:17.624Z,50.866886
2023-05-04T06:09:17.592Z,50.866898
2023-05-04T06:10:17.589Z,50.866837
2023-05-04T06:11:17.609Z,50.866905
2023-05-04T06:12:17.563Z,50.866879
2023-05-04T06:13:17.641Z,50.866772
2023-05-04T06:14:17.568Z,50.866825
2023-05-04T06:15:17.532Z,50.866859
2023-05-04T06:16:17.613Z,50.866798
2023-05-04T06:17:18.188Z,50.866776
2023-05-04T06:18:17.555Z,50.866810
2023-05-04T06:19:17.536Z,50.866806
2023-05-04T06:20:17.497Z,50.866825
2023-05-04T06:21:18.263Z,50.866829
2023-05-04T06:22:17.476Z,50.866791
2023-05-04T06:23:17.474Z,50.866779
2023-05-04T06:24:17.485Z,50.866810
2023-05-04T06:25:17.480Z,50.866875
2023-05-04T06:26:17.477Z,50.866814
2023-05-04T06:27:17.465Z,50.866787
2023-05-04T06:28:17.488Z,50.866810
2023-05-04T06:29:17.461Z,50.866882
2023-05-04T06:30:17.438Z,50.866871
2023-05-04T06:31:17.469Z,50.866798
2023-05-04T06:32:17.455Z,50.866833
2023-05-04T06:33:17.401Z,50.866833
2023-05-04T06:34:17.398Z,50.866791
2023-05-04T06:35:17.371Z,50.866848
2023-05-04T06:36:18.186Z,50.866840
2023-05-04T06:37:17.361Z,50.866829
2023-05-04T06:38:17.364Z,50.866791
2023-05-04T06:39:17.344Z,50.866711
2023-05-04T06:40:17.363Z,50.866814
2023-05-04T06:41:17.354Z,50.866817
2023-05-04T06:42:17.452Z,50.866840
2023-05-04T06:43:17.332Z,50.866783
2023-05-04T06:44:17.306Z,50.866795
2023-05-04T06:45:18.196Z,50.866833
2023-05-04T06:46:17.373Z,50.866814
2023-05-04T06:47:17.281Z,50.866867
2023-05-04T06:48:17.279Z,50.866806
2023-05-04T06:49:17.274Z,50.866837
2023-05-04T06:50:17.268Z,50.866768
2023-05-04T06:51:17.260Z,50.866714
2023-05-04T06:52:17.253Z,50.866844
2023-05-04T06:53:19.189Z,50.866848
2023-05-04T06:54:17.242Z,50.866814
2023-05-04T06:55:17.227Z,50.866768
2023-05-04T06:56:18.194Z,50.866810
2023-05-04T06:57:17.192Z,50.866772
2023-05-04T06:58:17.205Z,50.866699
2023-05-04T06:59:17.186Z,50.866734
2023-05-04T07:00:17.183Z,50.866737
2023-05-04T07:01:18.516Z,50.866695
2023-05-04T07:02:18.232Z,50.866722
2023-05-04T07:03:17.180Z,50.866726
2023-05-04T07:04:17.196Z,50.866722
2023-05-04T07:05:17.155Z,50.866718
2023-05-04T07:06:17.697Z,50.866718
2023-05-04T07:07:17.144Z,50.866722
2023-05-04T07:08:17.120Z,50.866718
2023-05-04T07:09:17.123Z,50.866745
2023-05-04T07:10:17.092Z,50.866734
2023-05-04T07:11:17.090Z,50.866734
2023-05-04T07:12:17.077Z,50.866726
2023-05-04T07:13:17.059Z,50.866745
2023-05-04T07:14:17.079Z,50.866753
2023-05-04T07:15:17.072Z,50.866779
2023-05-04T07:16:17.093Z,50.866756
2023-05-04T07:17:17.045Z,50.866760
2023-05-04T07:18:17.034Z,50.866783
2023-05-04T07:19:17.046Z,50.866760
2023-05-04T07:20:21.301Z,50.866722
2023-05-04T07:21:27.616Z,50.866711
2023-05-04T07:22:18.989Z,50.866646
2023-05-04T07:23:16.981Z,50.866627
2023-05-04T07:24:17.031Z,50.866734
2023-05-04T07:25:16.966Z,50.866806
2023-05-04T07:26:16.960Z,50.866776
2023-05-04T07:27:16.945Z,50.866711
2023-05-04T07:28:17.780Z,50.866695
2023-05-04T07:29:16.949Z,50.866688
2023-05-04T07:30:19.790Z,50.866707
2023-05-04T07:31:16.944Z,50.866718
2023-05-04T07:32:17.011Z,50.866680
2023-05-04T07:33:16.953Z,50.866722
2023-05-04T07:34:16.893Z,50.866737
2023-05-04T07:35:16.907Z,50.866703
2023-05-04T07:36:17.879Z,50.866695
2023-05-04T07:37:17.705Z,50.866695
2023-05-04T07:38:19.793Z,50.866707
2023-05-04T07:39:16.886Z,50.866703
2023-05-04T07:40:16.846Z,50.866730
2023-05-04T07:41:16.849Z,50.866695
2023-05-04T07:42:16.830Z,50.866726
2023-05-04T07:43:16.822Z,50.866753
2023-05-04T07:44:16.812Z,50.866764
2023-05-04T07:45:16.830Z,50.866714
2023-05-04T07:46:17.025Z,50.866714
2023-05-04T07:47:16.807Z,50.866730
2023-05-04T07:48:17.981Z,50.866798
2023-05-04T07:49:16.788Z,50.866776
2023-05-04T07:50:16.766Z,50.866791
2023-05-04T07:51:17.782Z,50.866817
2023-05-04T07:52:16.761Z,50.866825
2023-05-04T07:53:16.747Z,50.866814
2023-05-04T07:54:16.734Z,50.866776
2023-05-04T07:55:16.745Z,50.866776
2023-05-04T07:56:16.741Z,50.866795
2023-05-04T07:57:16.719Z,50.866776
2023-05-04T07:58:17.231Z,50.866756
2023-05-04T07:59:16.698Z,50.866764
2023-05-04T08:00:17.314Z,50.866734
2023-05-04T08:01:16.675Z,50.866753
2023-05-04T08:02:16.723Z,50.866730
2023-05-04T08:03:16.742Z,50.866714
2023-05-04T08:04:16.658Z,50.866669
2023-05-04T08:05:17.650Z,50.866684
2023-05-04T08:06:16.636Z,50.866737
2023-05-04T08:07:16.635Z,50.866825
2023-05-04T08:08:16.811Z,50.866779
2023-05-04T08:09:16.607Z,50.866798
2023-05-04T08:10:16.598Z,50.866787
2023-05-04T08:11:20.662Z,50.866779
2023-05-04T08:12:17.585Z,50.866795
2023-05-04T08:13:16.951Z,50.866749
2023-05-04T08:14:16.579Z,50.866776
2023-05-04T08:15:16.595Z,50.866859
2023-05-04T08:16:16.569Z,50.867004
2023-05-04T08:17:16.575Z,50.866943
2023-05-04T08:18:16.599Z,50.866917
2023-05-04T08:19:16.749Z,50.866806
2023-05-04T08:20:16.529Z,50.866810
2023-05-04T08:21:16.551Z,50.866798
2023-05-04T08:22:16.580Z,50.866787
2023-05-04T08:23:16.566Z,50.866711
2023-05-04T08:24:16.498Z,50.866699
2023-05-04T08:25:16.486Z,50.866703
2023-05-04T08:26:16.505Z,50.866646
2023-05-04T08:27:16.490Z,50.866581
2023-05-04T08:28:16.468Z,50.866615
2023-05-04T08:29:16.457Z,50.866657
2023-05-04T08:30:16.447Z,50.866760
2023-05-04T08:31:16.464Z,50.866764
2023-05-04T08:32:18.329Z,50.866642
2023-05-04T08:33:17.240Z,50.866688
2023-05-04T08:34:16.559Z,50.866669
2023-05-04T08:35:16.389Z,50.866619
2023-05-04T08:36:17.467Z,50.866642
2023-05-04T08:37:18.245Z,50.866642
2023-05-04T08:38:16.389Z,50.866665
2023-05-04T08:39:17.234Z,50.866680
2023-05-04T08:40:18.247Z,50.866669
2023-05-04T08:41:16.378Z,50.866688
2023-05-04T08:42:16.379Z,50.866707
2023-05-04T08:43:18.321Z,50.866699
2023-05-04T08:44:16.334Z,50.866684
2023-05-04T08:45:16.361Z,50.866661
2023-05-04T08:46:18.296Z,50.866657
2023-05-04T08:47:16.311Z,50.866703
2023-05-04T08:48:19.262Z,50.866730
2023-05-04T08:49:19.600Z,50.866718
2023-05-04T08:50:17.295Z,50.866699
2023-05-04T08:51:18.266Z,50.866722
2023-05-04T08:52:16.338Z,50.866711
2023-05-04T08:53:16.331Z,50.866707
2023-05-04T08:54:16.259Z,50.866722
2023-05-04T08:55:16.274Z,50.866734
2023-05-04T08:56:16.254Z,50.866779
2023-05-04T08:57:16.270Z,50.866821
2023-05-04T08:58:16.219Z,50.866795
2023-05-04T08:59:16.224Z,50.866817
2023-05-04T09:00:16.825Z,50.866772
2023-05-04T09:01:16.299Z,50.866776
2023-05-04T09:02:16.198Z,50.866722
2023-05-04T09:03:16.254Z,50.866726
2023-05-04T09:04:16.187Z,50.866711
2023-05-04T09:05:16.188Z,50.866734
2023-05-04T09:06:16.223Z,50.866756
2023-05-04T09:07:16.191Z,50.866791
2023-05-04T09:08:16.172Z,50.866798
2023-05-04T09:09:16.150Z,50.866810
2023-05-04T09:10:16.124Z,50.866718
2023-05-04T09:11:16.835Z,50.866730
2023-05-04T09:12:16.112Z,50.866753
2023-05-04T09:13:16.159Z,50.866764
2023-05-04T09:14:16.101Z,50.866718
2023-05-04T09:15:16.083Z,50.866730
2023-05-04T09:16:18.807Z,50.866726
2023-05-04T09:17:17.344Z,50.866714
2023-05-04T09:18:18.846Z,50.866692
2023-05-04T09:19:16.058Z,50.866714
2023-05-04T09:20:16.060Z,50.866699
2023-05-04T09:21:16.039Z,50.866734
2023-05-04T09:22:16.056Z,50.866745
2023-05-04T09:23:16.034Z,50.866749
2023-05-04T09:24:16.707Z,50.866734
2023-05-04T09:25:16.015Z,50.866753
2023-05-04T09:26:15.998Z,50.866722
2023-05-04T09:27:16.025Z,50.866787
2023-05-04T09:28:16.003Z,50.866814
2023-05-04T09:29:16.009Z,50.866829
2023-05-04T09:30:15.974Z,50.866749
2023-05-04T09:31:16.979Z,50.866714
2023-05-04T09:32:15.956Z,50.866669
2023-05-04T09:33:15.955Z,50.866692
2023-05-04T09:34:15.962Z,50.866673
2023-05-04T09:35:25.662Z,50.866722
2023-05-04T09:36:17.933Z,50.866722
2023-05-04T09:37:15.944Z,50.866730
2023-05-04T09:38:15.911Z,50.866718
2023-05-04T09:39:15.900Z,50.866741
2023-05-04T09:40:15.899Z,50.866703
2023-05-04T09:41:15.887Z,50.866714
2023-05-04T09:42:15.870Z,50.866730
2023-05-04T09:43:15.872Z,50.866749
2023-05-04T09:44:15.850Z,50.866734
2023-05-04T09:45:15.853Z,50.866707
2023-05-04T09:46:16.773Z,50.866741
2023-05-04T09:47:15.835Z,50.866772
2023-05-04T09:48:15.834Z,50.866734
2023-05-04T09:49:15.815Z,50.866722
2023-05-04T09:50:16.993Z,50.866699
2023-05-04T09:51:15.804Z,50.866741
2023-05-04T09:52:15.794Z,50.866768
2023-05-04T09:53:15.777Z,50.866821
2023-05-04T09:54:15.925Z,50.866772
2023-05-04T09:55:16.341Z,50.866787
2023-05-04T10:05:25.274Z,50.866840
2023-05-04T10:06:24.304Z,50.866772
2023-05-04T10:07:24.227Z,50.866787
2023-05-04T10:08:25.072Z,50.866753
2023-05-04T10:09:24.229Z,50.866737
2023-05-04T10:10:24.236Z,50.866749
2023-05-04T10:11:26.134Z,50.866718
2023-05-04T10:12:24.195Z,50.866741
2023-05-04T10:13:24.201Z,50.866776
2023-05-04T10:14:24.192Z,50.866760
2023-05-04T10:15:24.276Z,50.866760
2023-05-04T10:16:24.726Z,50.866817
2023-05-04T10:17:30.091Z,50.866768
2023-05-04T10:18:26.745Z,50.866745
2023-05-04T10:19:24.166Z,50.866726
2023-05-04T10:20:24.213Z,50.866722
2023-05-04T10:21:24.198Z,50.866676
2023-05-04T10:22:24.149Z,50.866756
2023-05-04T10:23:24.215Z,50.866791
2023-05-04T10:24:24.180Z,50.866714
2023-05-04T10:25:24.182Z,50.866798
2023-05-04T10:26:24.171Z,50.866882
2023-05-04T10:27:24.155Z,50.866787
2023-05-04T10:28:24.133Z,50.866863
2023-05-04T10:29:24.199Z,50.866726
2023-05-04T10:30:24.791Z,50.866802
2023-05-04T10:31:24.144Z,50.866806
2023-05-04T10:32:24.104Z,50.866932
2023-05-04T10:33:24.125Z,50.866856
2023-05-04T10:34:24.142Z,50.867027
2023-05-04T10:35:24.025Z,50.866802
2023-05-04T10:36:24.048Z,50.866928
2023-05-04T10:37:24.103Z,50.866802
2023-05-04T10:38:24.009Z,50.866837
2023-05-04T10:39:24.030Z,50.867088
2023-05-04T10:40:24.668Z,50.867069
2023-05-04T10:41:24.244Z,50.867039
2023-05-04T10:42:24.567Z,50.866955
2023-05-04T10:43:23.985Z,50.866833
2023-05-04T10:44:24.692Z,50.866783
2023-05-04T10:45:23.979Z,50.866928
2023-05-04T10:46:24.002Z,50.866852
2023-05-04T10:47:25.723Z,50.866852
2023-05-04T10:48:24.033Z,50.866756
2023-05-04T10:49:23.903Z,50.866863
2023-05-04T10:50:23.904Z,50.866951
2023-05-04T10:51:25.287Z,50.866917
2023-05-04T10:52:23.895Z,50.866951
2023-05-04T10:53:23.895Z,50.866783
2023-05-04T10:54:23.942Z,50.866772
2023-05-04T10:55:25.724Z,50.866882
2023-05-04T10:56:23.946Z,50.867058
2023-05-04T10:57:24.535Z,50.867107
2023-05-04T10:58:23.850Z,50.867065
2023-05-04T10:59:23.862Z,50.866951
2023-05-04T11:00:23.952Z,50.866867
2023-05-04T11:01:23.982Z,50.866920
2023-05-04T11:02:23.997Z,50.866886
2023-05-04T11:03:25.006Z,50.866810
2023-05-04T11:04:23.804Z,50.866951
2023-05-04T11:05:23.878Z,50.867004
2023-05-04T11:06:24.334Z,50.866959
2023-05-04T11:07:24.231Z,50.866856
2023-05-04T11:08:23.778Z,50.866837
2023-05-04T11:09:23.817Z,50.866833
2023-05-04T11:10:23.736Z,50.866886
2023-05-04T11:11:24.599Z,50.866875
2023-05-04T11:12:23.753Z,50.866867
2023-05-04T11:13:23.909Z,50.866852
2023-05-04T11:14:23.744Z,50.866982
2023-05-04T11:15:23.734Z,50.866932
2023-05-04T11:16:23.737Z,50.867092
2023-05-04T11:17:28.247Z,50.867130
2023-05-04T11:18:26.730Z,50.867119
2023-05-04T11:20:25.634Z,50.867004
2023-05-04T11:21:23.669Z,50.867001
2023-05-04T11:22:23.741Z,50.866962
2023-05-04T11:23:23.664Z,50.866943
2023-05-04T11:24:23.671Z,50.867001
2023-05-04T11:25:23.689Z,50.867085
2023-05-04T11:26:23.619Z,50.867233
2023-05-04T11:27:23.654Z,50.867092
2023-05-04T11:28:24.616Z,50.867146
2023-05-04T11:29:23.619Z,50.867065
2023-05-04T11:30:24.579Z,50.867119
2023-05-04T11:31:23.669Z,50.867104
2023-05-04T11:32:23.611Z,50.867100
2023-05-04T11:33:23.634Z,50.867062
2023-05-04T11:34:23.668Z,50.867188
2023-05-04T11:35:23.579Z,50.867157
2023-05-04T11:36:23.572Z,50.867390
2023-05-04T11:37:23.536Z,50.867188